createdAt,value
2022-09-28T00:00:56.020Z,99143.13
2022-09-28T00:03:28.428Z,99151.75
2022-09-28T00:05:59.917Z,99147.97
2022-09-28T00:08:31.782Z,99146.03
2022-09-28T00:11:03.284Z,99146.69
2022-09-28T00:13:35.530Z,99140.00
2022-09-28T00:16:07.169Z,99145.75
2022-09-28T00:18:39.035Z,99147.13
2022-09-28T00:21:12.255Z,99143.47
2022-09-28T00:24:03.231Z,99136.63
2022-09-28T00:26:34.770Z,99146.13
2022-09-28T00:29:06.647Z,99133.72
2022-09-28T00:31:38.238Z,99134.06
2022-09-28T00:34:10.156Z,99135.97
2022-09-28T00:36:41.647Z,99128.34
2022-09-28T00:39:14.228Z,99133.50
2022-09-28T00:41:45.770Z,99128.25
2022-09-28T00:44:17.724Z,99123.75
2022-09-28T00:46:49.215Z,99126.81
2022-09-28T00:49:21.139Z,99125.84
2022-09-28T00:51:52.618Z,99121.03
2022-09-28T00:54:24.464Z,99129.63
2022-09-28T00:56:56.595Z,99119.81
2022-09-28T00:59:28.146Z,99127.94
2022-09-28T01:01:59.744Z,99119.91
2022-09-28T01:04:31.286Z,99121.75
2022-09-28T01:07:03.115Z,99123.13
2022-09-28T01:09:34.611Z,99122.88
2022-09-28T01:12:06.453Z,99120.59
2022-09-28T01:14:37.931Z,99117.94
2022-09-28T01:17:09.866Z,99123.13
2022-09-28T01:19:41.378Z,99117.47
2022-09-28T01:22:13.168Z,99112.16
2022-09-28T01:24:44.662Z,99110.56
2022-09-28T01:27:16.655Z,99109.84
2022-09-28T01:29:48.232Z,99113.19
2022-09-28T01:32:19.809Z,99113.75
2022-09-28T01:34:51.319Z,99110.31
2022-09-28T01:37:23.201Z,99105.47
2022-09-28T01:39:54.696Z,99102.84
2022-09-28T01:42:26.523Z,99097.53
2022-09-28T01:44:58.080Z,99096.97
2022-09-28T01:47:29.959Z,99096.16
2022-09-28T01:50:01.496Z,99093.69
2022-09-28T01:52:33.334Z,98832.56
2022-09-28T01:55:04.823Z,99096.09
2022-09-28T01:57:36.790Z,99094.16
2022-09-28T02:00:08.327Z,99087.31
2022-09-28T02:02:40.140Z,99089.34
2022-09-28T02:05:11.637Z,99091.91
2022-09-28T02:07:43.734Z,99092.22
2022-09-28T02:10:15.967Z,99092.22
2022-09-28T02:12:47.840Z,99097.38
2022-09-28T02:15:19.378Z,99091.75
2022-09-28T02:17:51.222Z,99088.13
2022-09-28T02:20:22.745Z,99090.28
2022-09-28T02:22:54.715Z,99085.72
2022-09-28T02:25:26.527Z,99086.28
2022-09-28T02:27:58.077Z,99078.47
2022-09-28T02:30:29.578Z,99084.34
2022-09-28T02:33:01.055Z,99083.53
2022-09-28T02:35:35.652Z,99080.00
2022-09-28T02:38:07.137Z,99081.53
2022-09-28T02:40:39.039Z,99082.03
2022-09-28T02:43:10.543Z,99072.94
2022-09-28T02:45:42.412Z,99078.50
2022-09-28T02:48:13.953Z,99071.72
2022-09-28T02:50:46.047Z,99074.38
2022-09-28T02:53:17.602Z,99070.44
2022-09-28T02:55:49.139Z,99074.69
2022-09-28T02:58:20.673Z,99077.69
2022-09-28T03:00:52.537Z,99073.44
2022-09-28T03:03:24.097Z,99072.63
2022-09-28T03:05:55.692Z,99067.09
2022-09-28T03:08:27.232Z,99068.03
2022-09-28T03:10:59.263Z,99061.66
2022-09-28T03:13:30.755Z,99057.75
2022-09-28T03:16:02.714Z,99056.38
2022-09-28T03:18:34.241Z,99052.03
2022-09-28T03:21:07.471Z,99049.31
2022-09-28T03:23:39.051Z,99048.19
2022-09-28T03:26:10.863Z,99042.22
2022-09-28T03:28:42.359Z,99045.38
2022-09-28T03:31:14.409Z,99045.84
2022-09-28T03:33:46.009Z,99046.56
2022-09-28T03:36:17.941Z,99043.47
2022-09-28T03:38:49.422Z,99034.06
2022-09-28T03:41:21.146Z,99040.66
2022-09-28T03:43:52.943Z,99043.78
2022-09-28T03:46:24.516Z,99040.50
2022-09-28T03:48:56.521Z,99035.09
2022-09-28T03:51:28.010Z,99033.75
2022-09-28T03:54:00.014Z,99029.94
2022-09-28T03:56:31.528Z,99031.69
2022-09-28T03:59:03.451Z,99025.00
2022-09-28T04:01:35.005Z,99032.97
2022-09-28T04:04:06.806Z,99028.38
2022-09-28T04:06:38.305Z,99026.91
2022-09-28T04:09:10.379Z,99026.69
2022-09-28T04:12:02.380Z,99021.63
2022-09-28T04:14:33.827Z,99025.06
2022-09-28T04:17:07.187Z,99025.06
2022-09-28T04:19:38.717Z,99021.16
2022-09-28T04:22:10.305Z,99018.34
2022-09-28T04:24:43.800Z,99021.56
2022-09-28T04:27:34.223Z,99015.88
2022-09-28T04:30:06.194Z,99013.22
2022-09-28T04:32:37.717Z,99014.72
2022-09-28T04:35:09.543Z,99021.94
2022-09-28T04:37:41.090Z,99017.44
2022-09-28T04:40:13.001Z,99012.00
2022-09-28T04:42:44.486Z,99011.41
2022-09-28T04:45:16.424Z,99012.22
2022-09-28T04:47:47.923Z,99018.91
2022-09-28T04:50:19.763Z,99011.50
2022-09-28T04:52:51.269Z,99020.03
2022-09-28T04:55:22.873Z,99020.03
2022-09-28T04:57:54.419Z,99026.94
2022-09-28T05:00:26.211Z,99020.19
2022-09-28T05:02:57.705Z,99026.78
2022-09-28T05:05:29.505Z,99024.38
2022-09-28T05:08:01.070Z,99028.06
2022-09-28T05:10:33.005Z,99032.88
2022-09-28T05:13:04.641Z,99024.56
2022-09-28T05:15:36.335Z,99025.34
2022-09-28T05:18:07.903Z,99025.00
2022-09-28T05:20:39.736Z,99026.16
2022-09-28T05:23:11.416Z,99026.31
2022-09-28T05:25:43.180Z,99031.69
2022-09-28T05:28:14.725Z,99034.91
2022-09-28T05:30:46.566Z,99036.13
2022-09-28T05:33:18.071Z,99032.34
2022-09-28T05:35:53.835Z,99023.66
2022-09-28T05:38:27.048Z,99032.84
2022-09-28T05:41:00.342Z,99022.13
2022-09-28T05:43:33.811Z,99016.31
2022-09-28T05:46:05.369Z,99013.75
2022-09-28T05:48:37.425Z,99024.72
2022-09-28T05:51:10.128Z,99008.63
2022-09-28T05:53:41.967Z,99013.84
2022-09-28T05:56:13.456Z,99008.19
2022-09-28T05:58:44.981Z,99001.09
2022-09-28T06:01:16.644Z,99007.19
2022-09-28T06:03:48.209Z,99004.53
2022-09-28T06:06:19.746Z,99002.84
2022-09-28T06:08:51.650Z,99005.91
2022-09-28T06:11:27.579Z,98993.88
2022-09-28T06:13:59.233Z,98990.91
2022-09-28T06:16:30.978Z,98996.78
2022-09-28T06:19:02.851Z,98989.16
2022-09-28T06:21:34.345Z,98992.50
2022-09-28T06:24:05.856Z,98995.13
2022-09-28T06:26:37.413Z,98988.50
2022-09-28T06:29:09.239Z,98994.88
2022-09-28T06:31:40.801Z,98981.59
2022-09-28T06:34:12.718Z,98897.09
2022-09-28T06:36:44.212Z,98984.00
2022-09-28T06:39:16.177Z,98982.91
2022-09-28T06:41:47.726Z,98976.22
2022-09-28T06:44:19.555Z,98981.69
2022-09-28T06:46:51.535Z,98978.44
2022-09-28T06:49:23.417Z,98975.13
2022-09-28T06:51:55.057Z,98970.75
2022-09-28T06:54:26.926Z,98974.06
2022-09-28T06:56:58.422Z,98975.44
2022-09-28T06:59:30.170Z,98970.41
2022-09-28T07:02:01.797Z,98972.59
2022-09-28T07:04:34.360Z,98979.56
2022-09-28T07:07:06.552Z,98971.69
2022-09-28T07:09:43.752Z,98987.03
2022-09-28T07:12:18.067Z,98978.03
2022-09-28T07:14:50.735Z,98983.47
2022-09-28T07:17:23.074Z,98977.13
2022-09-28T07:19:59.090Z,98974.72
2022-09-28T07:22:42.453Z,98975.63
2022-09-28T07:25:15.102Z,98976.13
2022-09-28T07:27:47.469Z,98974.53
2022-09-28T07:30:20.101Z,98973.75
2022-09-28T07:32:52.090Z,98981.53
2022-09-28T07:35:23.776Z,98981.50
2022-09-28T07:37:55.583Z,98986.06
2022-09-28T07:40:48.388Z,98986.38
2022-09-28T07:43:23.360Z,98986.38
2022-09-28T07:45:54.998Z,98981.63
2022-09-28T07:48:26.886Z,98995.50
2022-09-28T07:51:00.039Z,98986.41
2022-09-28T07:53:31.892Z,98984.81
2022-09-28T07:56:06.208Z,98983.75
2022-09-28T07:58:38.073Z,98985.59
2022-09-28T08:01:10.418Z,98990.16
2022-09-28T08:03:45.549Z,98978.81
2022-09-28T08:06:17.182Z,98984.09
2022-09-28T08:08:49.611Z,98985.03
2022-09-28T08:11:21.312Z,98986.63
2022-09-28T08:13:55.902Z,98983.81
2022-09-28T08:16:27.511Z,98989.03
2022-09-28T08:18:59.404Z,98989.66
2022-09-28T08:21:46.135Z,98991.84
2022-09-28T08:24:18.384Z,98993.31
2022-09-28T08:26:49.961Z,98996.81
2022-09-28T08:29:21.834Z,98999.34
2022-09-28T08:31:53.338Z,98991.91
2022-09-28T08:34:25.327Z,98995.16
2022-09-28T08:36:56.884Z,98998.75
2022-09-28T08:39:28.471Z,99002.19
2022-09-28T08:41:59.968Z,99009.91
2022-09-28T08:44:31.810Z,98999.03
2022-09-28T08:47:03.342Z,98993.84
2022-09-28T08:49:36.464Z,98998.19
2022-09-28T08:52:08.208Z,98995.63
2022-09-28T08:54:40.244Z,99000.91
2022-09-28T08:57:11.896Z,98994.75
2022-09-28T08:59:43.695Z,98992.25
2022-09-28T09:02:15.283Z,98991.38
2022-09-28T09:04:47.279Z,98988.63
2022-09-28T09:07:18.860Z,98991.00
2022-09-28T09:09:50.395Z,98989.56
2022-09-28T09:12:22.224Z,98994.16
2022-09-28T09:14:53.754Z,98991.75
2022-09-28T09:17:25.730Z,98989.25
2022-09-28T09:19:57.488Z,98989.19
2022-09-28T09:22:29.488Z,98984.31
2022-09-28T09:25:01.029Z,98991.09
2022-09-28T09:27:33.203Z,98993.78
2022-09-28T09:30:04.722Z,98988.88
2022-09-28T09:32:36.579Z,98989.22
2022-09-28T09:35:19.530Z,98979.03
2022-09-28T09:37:56.540Z,98984.94
2022-09-28T09:40:30.490Z,98990.09
2022-09-28T09:43:02.435Z,98986.69
2022-09-28T09:45:34.000Z,98983.94
2022-09-28T09:48:05.841Z,98986.81
2022-09-28T09:50:39.427Z,98989.47
2022-09-28T09:53:11.276Z,98986.06
2022-09-28T09:55:43.235Z,98991.38
2022-09-28T09:58:15.264Z,98992.50
2022-09-28T10:00:46.774Z,98993.75
2022-09-28T10:03:18.616Z,98997.00
2022-09-28T10:05:50.103Z,98991.91
2022-09-28T10:08:22.053Z,98992.25
2022-09-28T10:10:53.549Z,98987.78
2022-09-28T10:13:25.679Z,98992.03
2022-09-28T10:15:57.208Z,98987.19
2022-09-28T10:18:29.166Z,98990.94
2022-09-28T10:21:00.696Z,98993.94
2022-09-28T10:23:34.267Z,98999.47
2022-09-28T10:26:05.755Z,99000.03
2022-09-28T10:28:37.602Z,99003.41
2022-09-28T10:31:10.157Z,99009.44
2022-09-28T10:33:42.786Z,99001.72
2022-09-28T10:36:15.873Z,99010.75
2022-09-28T10:38:47.727Z,99011.78
2022-09-28T10:41:19.232Z,99010.31
2022-09-28T10:43:52.919Z,99007.09
2022-09-28T10:46:26.513Z,99016.25
2022-09-28T10:48:58.418Z,99009.25
2022-09-28T10:51:29.971Z,99011.75
2022-09-28T10:54:01.826Z,99015.16
2022-09-28T10:56:33.326Z,99014.56
2022-09-28T10:59:05.219Z,99014.59
2022-09-28T11:01:37.173Z,99003.44
2022-09-28T11:04:10.394Z,99011.53
2022-09-28T11:06:42.289Z,98854.13
2022-09-28T11:09:13.792Z,99014.63
2022-09-28T11:11:46.372Z,99011.97
2022-09-28T11:14:17.879Z,99008.78
2022-09-28T11:16:49.463Z,99013.13
2022-09-28T11:19:21.482Z,99006.72
2022-09-28T11:21:52.989Z,99009.91
2022-09-28T11:24:26.677Z,99007.25
2022-09-28T11:26:59.968Z,98846.66
2022-09-28T11:29:32.065Z,99013.63
2022-09-28T11:32:04.169Z,99005.84
2022-09-28T11:34:57.543Z,99007.72
2022-09-28T11:37:27.938Z,99005.03
2022-09-28T11:40:00.129Z,99007.69
2022-09-28T11:42:31.658Z,99016.06
2022-09-28T11:45:03.726Z,99012.50
2022-09-28T11:47:35.214Z,99011.97
2022-09-28T11:50:07.116Z,99001.97
2022-09-28T11:52:38.689Z,99007.09
2022-09-28T11:55:10.288Z,99017.44
2022-09-28T11:57:41.823Z,99013.69
2022-09-28T12:00:13.385Z,99013.88
2022-09-28T12:02:45.397Z,99013.09
2022-09-28T12:05:20.761Z,99019.41
2022-09-28T12:07:52.709Z,99021.53
2022-09-28T12:10:24.197Z,99016.13
2022-09-28T12:12:55.717Z,99022.25
2022-09-28T12:15:27.233Z,99022.94
2022-09-28T12:17:58.836Z,99019.50
2022-09-28T12:20:30.595Z,99019.50
2022-09-28T12:23:02.655Z,99013.03
2022-09-28T12:25:34.215Z,99017.84
2022-09-28T12:28:06.112Z,99011.13
2022-09-28T12:30:40.427Z,99017.56
2022-09-28T12:33:12.274Z,99021.34
2022-09-28T12:35:43.819Z,99024.88
2022-09-28T12:38:15.626Z,99018.69
2022-09-28T12:40:47.193Z,99010.41
2022-09-28T12:43:20.339Z,99015.16
2022-09-28T12:46:11.119Z,99015.84
2022-09-28T12:48:43.718Z,99014.66
2022-09-28T12:51:15.189Z,99013.09
2022-09-28T12:53:47.032Z,99018.19
2022-09-28T12:56:21.480Z,99015.25
2022-09-28T12:58:59.799Z,99013.28
2022-09-28T13:01:31.367Z,99021.41
2022-09-28T13:04:03.243Z,99017.34
2022-09-28T13:06:34.712Z,99016.78
2022-09-28T13:09:06.486Z,99019.78
2022-09-28T13:11:37.962Z,99021.59
2022-09-28T13:14:10.392Z,99018.41
2022-09-28T13:16:41.945Z,99015.69
2022-09-28T13:19:13.797Z,99017.06
2022-09-28T13:21:45.706Z,99019.94
2022-09-28T13:24:31.715Z,99017.28
2022-09-28T13:27:07.322Z,99021.47
2022-09-28T13:32:12.900Z,99017.31
2022-09-28T13:34:44.424Z,99019.06
2022-09-28T13:37:20.304Z,99017.25
2022-09-28T13:39:52.574Z,99018.38
2022-09-28T13:42:24.444Z,99021.44
2022-09-28T13:44:55.989Z,99019.25
2022-09-28T13:47:27.677Z,99024.34
2022-09-28T13:50:00.371Z,99023.44
2022-09-28T13:52:31.891Z,99026.66
2022-09-28T13:55:03.407Z,99022.28
2022-09-28T13:57:35.369Z,99024.50
2022-09-28T14:00:06.872Z,99032.22
2022-09-28T14:02:38.901Z,99030.19
2022-09-28T14:05:10.402Z,99029.84
2022-09-28T14:07:42.224Z,99031.38
2022-09-28T14:10:13.747Z,99034.09
2022-09-28T14:12:45.715Z,99034.69
2022-09-28T14:15:17.217Z,99038.88
2022-09-28T14:17:50.388Z,99042.84
2022-09-28T14:20:21.864Z,99046.69
2022-09-28T14:22:54.984Z,99048.72
2022-09-28T14:25:26.508Z,99059.16
2022-09-28T14:27:58.289Z,99049.03
2022-09-28T14:30:29.784Z,99057.13
2022-09-28T14:33:03.214Z,99055.59
2022-09-28T14:35:34.734Z,99060.09
2022-09-28T14:38:25.180Z,99065.22
2022-09-28T14:41:15.247Z,99064.00
2022-09-28T14:43:46.785Z,99060.28
2022-09-28T14:46:19.101Z,99056.84
2022-09-28T14:48:50.825Z,99065.41
2022-09-28T14:51:22.965Z,99074.50
2022-09-28T14:53:54.652Z,99071.28
2022-09-28T14:56:31.847Z,99075.84
2022-09-28T14:59:04.140Z,99071.88
2022-09-28T15:01:36.044Z,99067.59
2022-09-28T15:04:07.537Z,99071.84
2022-09-28T15:06:41.456Z,99077.97
2022-09-28T15:09:12.912Z,99074.72
2022-09-28T15:11:44.765Z,99078.66
2022-09-28T15:14:16.582Z,99078.13
2022-09-28T15:16:48.398Z,99080.50
2022-09-28T15:19:20.920Z,99087.16
2022-09-28T15:21:52.422Z,99086.88
2022-09-28T15:24:23.902Z,99082.84
2022-09-28T15:26:56.820Z,99082.63
2022-09-28T15:29:31.248Z,99083.41
2022-09-28T15:32:04.245Z,99092.72
2022-09-28T15:34:58.430Z,99097.19
2022-09-28T15:37:30.390Z,99096.72
2022-09-28T15:40:01.890Z,99089.53
2022-09-28T15:42:33.456Z,99100.25
2022-09-28T15:45:07.740Z,99087.75
2022-09-28T15:47:40.445Z,99097.38
2022-09-28T15:52:57.759Z,99101.13
2022-09-28T15:55:29.291Z,99102.47
2022-09-28T15:58:00.800Z,99099.22
2022-09-28T16:00:32.568Z,99106.19
2022-09-28T16:03:05.434Z,99110.94
2022-09-28T16:05:37.547Z,99105.91
2022-09-28T16:08:09.003Z,99115.47
2022-09-28T16:10:41.428Z,99112.06
2022-09-28T16:13:15.458Z,99120.81
2022-09-28T16:15:47.067Z,99122.13
2022-09-28T16:18:20.079Z,99126.38
2022-09-28T16:20:51.949Z,99133.00
2022-09-28T16:23:24.041Z,99123.94
2022-09-28T16:25:55.915Z,99121.78
2022-09-28T16:28:29.550Z,99127.03
2022-09-28T16:31:03.302Z,99133.41
2022-09-28T16:33:35.176Z,99145.09
2022-09-28T16:36:06.787Z,99142.94
2022-09-28T16:38:38.801Z,99148.50
2022-09-28T16:41:10.615Z,99151.59
2022-09-28T16:43:42.082Z,99153.19
2022-09-28T16:46:14.030Z,99144.13
2022-09-28T16:48:48.877Z,99147.28
2022-09-28T16:51:20.788Z,99152.06
2022-09-28T16:54:11.653Z,99157.91
2022-09-28T16:56:43.152Z,99161.84
2022-09-28T16:59:15.114Z,99157.03
2022-09-28T17:01:47.300Z,99162.56
2022-09-28T17:04:19.353Z,99164.13
2022-09-28T17:06:51.041Z,99166.28
2022-09-28T17:09:22.868Z,99170.25
2022-09-28T17:11:56.650Z,99168.88
2022-09-28T17:14:28.791Z,99171.81
2022-09-28T17:17:09.000Z,99181.91
2022-09-28T17:19:42.414Z,99179.44
2022-09-28T17:22:14.258Z,99176.00
2022-09-28T17:24:46.445Z,99183.72
2022-09-28T17:27:17.956Z,99181.31
2022-09-28T17:29:49.755Z,99184.72
2022-09-28T17:32:21.231Z,99192.97
2022-09-28T17:35:06.451Z,99191.88
2022-09-28T17:37:44.875Z,99192.41
2022-09-28T17:40:16.472Z,99193.97
2022-09-28T17:42:48.117Z,99195.03
2022-09-28T17:45:20.050Z,99199.25
2022-09-28T17:47:51.546Z,99199.50
2022-09-28T17:50:23.042Z,99199.22
2022-09-28T17:52:54.569Z,99196.53
2022-09-28T17:55:30.384Z,99199.75
2022-09-28T17:58:02.137Z,99193.88
2022-09-28T18:00:34.541Z,99196.28
2022-09-28T18:03:06.402Z,99200.00
2022-09-28T18:05:37.933Z,99196.03
2022-09-28T18:08:09.765Z,99202.13
2022-09-28T18:10:41.268Z,99202.59
2022-09-28T18:13:13.235Z,99209.53
2022-09-28T18:15:44.814Z,99209.22
2022-09-28T18:18:16.657Z,99211.88
2022-09-28T18:23:21.536Z,99214.00
2022-09-28T18:25:53.047Z,99217.16
2022-09-28T18:28:24.739Z,99222.47
2022-09-28T18:30:56.331Z,99222.16
2022-09-28T18:36:17.208Z,99237.31
2022-09-28T18:38:49.069Z,99228.78
2022-09-28T18:41:20.574Z,99231.69
2022-09-28T18:43:52.502Z,99239.13
2022-09-28T18:46:27.747Z,99241.47
2022-09-28T18:48:59.674Z,99248.66
2022-09-28T18:51:31.237Z,99247.06
2022-09-28T18:54:07.535Z,99251.81
2022-09-28T18:56:39.052Z,99247.19
2022-09-28T18:59:12.353Z,99249.19
2022-09-28T19:01:44.112Z,99256.38
2022-09-28T19:04:16.060Z,99256.88
2022-09-28T19:06:51.731Z,99256.88
2022-09-28T19:09:24.935Z,99257.91
2022-09-28T19:11:56.720Z,99185.22
2022-09-28T19:14:28.195Z,99259.69
2022-09-28T19:17:00.161Z,99262.06
2022-09-28T19:19:31.762Z,99263.91
2022-09-28T19:22:03.582Z,99260.13
2022-09-28T19:24:35.100Z,99259.56
2022-09-28T19:27:06.946Z,99263.78
2022-09-28T19:29:38.426Z,99274.97
2022-09-28T19:32:12.605Z,99270.69
2022-09-28T19:34:44.075Z,99266.69
2022-09-28T19:37:15.926Z,99271.69
2022-09-28T19:39:47.390Z,99267.88
2022-09-28T19:42:18.935Z,99274.16
2022-09-28T19:44:51.018Z,99273.59
2022-09-28T19:47:22.800Z,99278.84
2022-09-28T19:49:54.534Z,99280.63
2022-09-28T19:52:26.088Z,99277.88
2022-09-28T19:54:57.649Z,99282.06
2022-09-28T19:57:29.269Z,99271.63
2022-09-28T20:00:03.310Z,99282.94
2022-09-28T20:02:35.586Z,99285.19
2022-09-28T20:05:09.798Z,99284.06
2022-09-28T20:07:41.479Z,99286.41
2022-09-28T20:10:13.106Z,99289.97
2022-09-28T20:12:44.958Z,99292.31
2022-09-28T20:15:16.945Z,99292.78
2022-09-28T20:17:48.998Z,99300.19
2022-09-28T20:20:20.467Z,99302.03
2022-09-28T20:22:52.725Z,99304.22
2022-09-28T20:25:29.174Z,99306.41
2022-09-28T20:28:00.945Z,99310.75
2022-09-28T20:30:33.111Z,99311.34
2022-09-28T20:33:04.770Z,99319.63
2022-09-28T20:35:36.252Z,99318.34
2022-09-28T20:38:08.059Z,99318.25
2022-09-28T20:40:42.069Z,99325.50
2022-09-28T20:43:15.452Z,99321.72
2022-09-28T20:45:47.156Z,99322.97
2022-09-28T20:48:19.993Z,99326.69
2022-09-28T20:50:51.550Z,99322.09
2022-09-28T20:53:23.796Z,99327.47
2022-09-28T20:55:55.979Z,99326.44
2022-09-28T20:58:27.818Z,99331.53
2022-09-28T21:00:59.309Z,99333.59
2022-09-28T21:03:31.414Z,99332.91
2022-09-28T21:06:02.958Z,99334.41
2022-09-28T21:08:34.768Z,99339.50
2022-09-28T21:11:07.185Z,99340.63
2022-09-28T21:13:41.868Z,99342.50
2022-09-28T21:16:13.399Z,99344.59
2022-09-28T21:18:45.352Z,99347.56
2022-09-28T21:21:16.801Z,99345.72
2022-09-28T21:23:48.644Z,99348.94
2022-09-28T21:26:25.283Z,99351.44
2022-09-28T21:28:56.752Z,99349.25
2022-09-28T21:31:29.526Z,99358.28
2022-09-28T21:34:01.173Z,99351.59
2022-09-28T21:36:32.651Z,99354.72
2022-09-28T21:39:09.545Z,99363.25
2022-09-28T21:41:42.199Z,99361.09
2022-09-28T21:44:13.661Z,99366.16
2022-09-28T21:46:45.608Z,99370.19
2022-09-28T21:49:17.177Z,99372.84
2022-09-28T21:51:48.987Z,99373.41
2022-09-28T21:54:21.341Z,99372.13
2022-09-28T21:56:53.161Z,99376.63
2022-09-28T21:59:24.980Z,99376.16
2022-09-28T22:01:56.793Z,99381.47
2022-09-28T22:04:28.324Z,99385.16
2022-09-28T22:07:00.384Z,99383.06
2022-09-28T22:09:31.922Z,99387.56
2022-09-28T22:12:03.953Z,99386.28
2022-09-28T22:14:35.434Z,99382.59
2022-09-28T22:17:07.281Z,99384.69
2022-09-28T22:19:38.801Z,99386.78
2022-09-28T22:22:10.593Z,99382.97
2022-09-28T22:24:42.086Z,99388.19
2022-09-28T22:27:15.161Z,99384.97
2022-09-28T22:29:46.631Z,99384.97
2022-09-28T22:32:18.508Z,99386.72
2022-09-28T22:34:50.016Z,99385.91
2022-09-28T22:37:21.927Z,99385.47
2022-09-28T22:39:53.993Z,99389.50
2022-09-28T22:42:26.261Z,99388.44
2022-09-28T22:44:57.742Z,99388.56
2022-09-28T22:47:29.513Z,99387.91
2022-09-28T22:50:00.979Z,99388.94
2022-09-28T22:52:32.452Z,99388.84
2022-09-28T22:55:03.932Z,99401.75
2022-09-28T22:57:35.710Z,99399.34
2022-09-28T23:00:07.224Z,99396.59
2022-09-28T23:02:39.105Z,99397.53
2022-09-28T23:05:10.674Z,99405.63
2022-09-28T23:07:42.469Z,99397.09
2022-09-28T23:10:13.949Z,99397.47
2022-09-28T23:12:45.909Z,99405.91
2022-09-28T23:15:17.370Z,99409.22
2022-09-28T23:17:49.191Z,99403.56
2022-09-28T23:20:20.644Z,99403.72
2022-09-28T23:22:52.508Z,99400.94
2022-09-28T23:25:24.004Z,99407.19
2022-09-28T23:27:55.801Z,99399.34
2022-09-28T23:30:27.342Z,99399.81
2022-09-28T23:32:59.254Z,99402.94
2022-09-28T23:35:30.723Z,99399.91
2022-09-28T23:38:02.648Z,99402.56
2022-09-28T23:40:34.260Z,99407.28
2022-09-28T23:43:06.117Z,99398.28
2022-09-28T23:45:37.661Z,99401.97
2022-09-28T23:48:09.529Z,99399.22
2022-09-28T23:50:40.993Z,99397.59
2022-09-28T23:53:13.968Z,99404.97
2022-09-28T23:55:45.438Z,99404.41
2022-09-28T23:58:17.271Z,99399.56
